Aidamar — ICSJ — position and weather

sailwx.info

Track history (hours):
 
Tides and Currents Weather Stations Pressure Air Temp Water Temp Dewpoint Dewpoint Depression Visibility Wind Speed Wind Dir Waves Ship Positions

Aidamar

Last reported at 2015-May-21 17:33 UTC. Time now 2015-May-22 08:37 UTC.
Position N 59°19' E 018°08'.

Length 253 m; draft 7.3 m.

Type: Passenger vessel. MMSI: 247312900.

Date/timePositionNaut miles runAvg speedWind from/ knotsBaromVisibWave heightAir tempDewpointWater temp
2015-May-21 17:33N 59°19' E 018°08'1 1.0
2015-May-21 16:33N 59°19' E 018°06'0 0.0
2015-May-21 15:33N 59°19' E 018°06'0 0.0
2015-May-21 14:33N 59°19' E 018°06'0 0.0
2015-May-21 13:30N 59°19' E 018°06'0 0.0
2015-May-21 12:33N 59°19' E 018°06'0 0.0
2015-May-21 11:30N 59°19' E 018°06'0 0.0
2015-May-21 10:32N 59°19' E 018°06'0 0.0
2015-May-21 09:31N 59°19' E 018°06'0 0.0
2015-May-21 08:31N 59°19' E 018°06'0 0.0
2015-May-21 07:34N 59°19' E 018°06'5 4.2
2015-May-21 06:15N 59°22' E 018°15'9111.3
2015-May-20 22:10N 59°33' E 021°13'1016.3
2015-May-20 21:33N 59°31' E 021°33'1716.3
2015-May-20 20:31N 59°29' E 022°06'3416.1
2015-May-20 18:23N 59°36' E 023°12'2016.2
2015-May-20 17:09N 59°41' E 023°50'1216.0
2015-May-20 16:25N 59°45' E 024°13'70 4.6
2015-May-20 01:08N 60°00' E 026°29'1015.6
2015-May-20 00:31N 60°00' E 026°48'8015.0
2015-May-19 19:10N 60°02' E 029°28'912.5
2015-May-19 18:25N 59°59' E 029°46'1011.0
2015-May-19 17:33N 59°56' E 030°05'3 3.3
2015-May-19 16:32N 59°57' E 030°11'0 0.0
2015-May-19 15:33N 59°57' E 030°11'0 0.0
2015-May-19 14:34N 59°57' E 030°11'0 0.0
2015-May-19 13:33N 59°57' E 030°11'0 0.0
2015-May-19 12:31N 59°57' E 030°11'0 0.0
2015-May-19 11:33N 59°57' E 030°11'0 0.0
2015-May-19 10:33N 59°57' E 030°11'0 0.0
2015-May-19 09:29N 59°57' E 030°11'0 0.0
2015-May-19 08:33N 59°57' E 030°11'0 0.0
2015-May-19 07:33N 59°57' E 030°11'0 0.0
2015-May-19 06:31N 59°57' E 030°11'0 0.0
2015-May-19 05:32N 59°57' E 030°11'0 0.0
2015-May-19 04:31N 59°57' E 030°11'2 1.8
2015-May-19 03:33N 59°57' E 030°08'1010.3
2015-May-19 02:33N 59°58' E 029°47'1110.8
2015-May-19 01:32N 60°01' E 029°27'7114.1
2015-May-18 20:30N 59°59' E 027°05'1515.8
2015-May-18 19:33N 59°59' E 026°35'5917.6
2015-May-18 16:13N 59°40' E 024°45'1014.5
2015-May-18 15:33N 59°30' E 024°46'3 2.9
2015-May-18 14:31N 59°27' E 024°46'0 0.0
2015-May-18 13:32N 59°27' E 024°46'0 0.0
2015-May-18 12:22N 59°27' E 024°46'0 0.0
2015-May-18 11:31N 59°27' E 024°46'0 0.0
2015-May-18 10:30N 59°27' E 024°46'0 0.0
2015-May-18 09:33N 59°27' E 024°46'0 0.0
2015-May-18 08:33N 59°27' E 024°46'0 0.0
2015-May-18 07:29N 59°27' E 024°46'0 0.0
2015-May-18 06:32N 59°27' E 024°46'0 0.0
2015-May-18 05:31N 59°27' E 024°46'0 0.1
2015-May-18 04:33N 59°27' E 024°46'9 8.8
2015-May-18 03:32N 59°30' E 024°29'1615.2
2015-May-18 02:31N 59°30' E 023°58'1010.6
2015-May-18 01:33N 59°30' E 023°38'9 9.0
2015-May-18 00:32N 59°30' E 023°20'10 9.7
2015-May-17 23:33N 59°28' E 023°02'33115.8
2015-May-17 02:31N 55°41' E 015°33'1716.1
2015-May-17 01:30N 55°33' E 015°07'1616.5
2015-May-17 00:33N 55°25' E 014°43'1716.0
2015-May-16 23:30N 55°13' E 014°24'1515.8
2015-May-16 22:33N 55°01' E 014°07'6716.0
2015-May-16 18:22N 54°36' E 012°20'1315.8
2015-May-16 17:34N 54°24' E 012°09'1313.2
2015-May-16 16:33N 54°11' E 012°05'1 0.5
2015-May-16 15:32N 54°11' E 012°06'0 0.0
2015-May-16 14:29N 54°11' E 012°06'0 0.0
2015-May-16 12:13N 54°11' E 012°06'0 0.0
2015-May-16 11:28N 54°11' E 012°06'0 0.0
2015-May-16 10:25N 54°11' E 012°06'0 0.0
2015-May-16 09:22N 54°11' E 012°06'0 0.0
2015-May-16 08:31N 54°11' E 012°06'0 0.0
2015-May-16 07:31N 54°11' E 012°06'0 0.0
2015-May-16 06:07N 54°11' E 012°06'0 0.0
2015-May-16 05:13N 54°11' E 012°06'0 0.0
2015-May-16 04:25N 54°11' E 012°06'10 7.9
2015-May-16 03:08N 54°20' E 011°59'611.3
2015-May-16 02:33N 54°26' E 012°04'6114.8
2015-May-15 22:26N 54°57' E 013°34'1415.8
2015-May-15 21:34N 55°02' E 013°57'1615.7
2015-May-15 20:33N 55°13' E 014°16'1110.8
2015-May-15 19:33N 55°22' E 014°28'1413.9
2015-May-15 18:33N 55°29' E 014°48'1615.9
2015-May-15 17:33N 55°37' E 015°12'1615.6
2015-May-15 16:33N 55°45' E 015°36'1515.5
2015-May-15 15:34N 55°53' E 016°00'9215.4
2015-May-15 09:33N 57°12' E 017°29'134 8.7
2015-May-14 18:13N 59°23' E 018°18'7 9.7
2015-May-14 17:33N 59°19' E 018°07'1 0.5
2015-May-14 16:28N 59°19' E 018°06'0 0.0
2015-May-14 15:31N 59°19' E 018°06'0 0.0
2015-May-14 14:30N 59°19' E 018°06'0 0.0
2015-May-14 13:33N 59°19' E 018°06'0 0.0
2015-May-14 12:33N 59°19' E 018°06'0 0.0
2015-May-14 11:33N 59°19' E 018°06'0 0.0
2015-May-14 10:27N 59°19' E 018°06'0 0.0
2015-May-14 09:27N 59°19' E 018°06'0 0.0
2015-May-14 07:33N 59°19' E 018°06'9 9.0
2015-May-14 06:33N 59°22' E 018°22'9211.3
2015-May-13 22:20N 59°32' E 021°23'1215.5
2015-May-13 21:33N 59°30' E 021°47'5016.5
2015-May-13 18:32N 59°38' E 023°24'1917.7
2015-May-13 17:27N 59°43' E 024°00'1516.9
2015-May-13 16:33N 59°49' E 024°28'2114.3
2015-May-13 15:07N 60°05' E 024°53'4 0.4
2015-May-13 05:21N 60°09' E 024°55'5311.0
2015-May-13 00:34N 60°01' E 026°40'9214.9
2015-May-12 18:23N 59°59' E 029°44'911.3
2015-May-12 17:33N 59°55' E 030°01'5 4.8
2015-May-12 16:31N 59°57' E 030°11'0 0.0
2015-May-12 15:32N 59°57' E 030°11'0 0.0
2015-May-12 14:33N 59°57' E 030°11'0 0.0
2015-May-12 13:33N 59°57' E 030°11'0 0.0
2015-May-12 12:33N 59°57' E 030°11'0 0.0
2015-May-12 11:33N 59°57' E 030°11'0 0.0
2015-May-12 10:32N 59°57' E 030°11'0 0.0
2015-May-12 09:33N 59°57' E 030°11'0 0.0
2015-May-12 08:33N 59°57' E 030°11'0 0.0
2015-May-12 07:33N 59°57' E 030°11'0 0.0
2015-May-12 06:31N 59°57' E 030°11'0 0.0
2015-May-12 05:32N 59°57' E 030°11'0 0.0
2015-May-12 04:33N 59°57' E 030°11'6 5.8
2015-May-12 03:33N 59°55' E 029°60'1111.1
2015-May-12 02:33N 59°60' E 029°39'6613.3
2015-May-11 21:33N 60°05' E 027°27'1615.9
2015-May-11 20:33N 59°58' E 026°58'1615.6
2015-May-11 19:33N 59°58' E 026°27'1616.2
2015-May-11 18:33N 59°53' E 025°57'  
Track history (hours):
 
Tides and Currents Weather Stations Pressure Air Temp Water Temp Dewpoint Dewpoint Depression Visibility Wind Speed Wind Dir Waves Ship Positions

Aidamar

Last reported at 2015-May-21 17:33 UTC. Time now 2015-May-22 08:37 UTC.
Position N 59°19' E 018°08'.

Length 253 m; draft 7.3 m.

Type: Passenger vessel. MMSI: 247312900.

Date/timePositionNaut miles runAvg speedWind from/ knotsBaromVisibWave heightAir tempDewpointWater temp
2015-May-21 17:33N 59°19' E 018°08'1 1.0
2015-May-21 16:33N 59°19' E 018°06'0 0.0
2015-May-21 15:33N 59°19' E 018°06'0 0.0
2015-May-21 14:33N 59°19' E 018°06'0 0.0
2015-May-21 13:30N 59°19' E 018°06'0 0.0
2015-May-21 12:33N 59°19' E 018°06'0 0.0
2015-May-21 11:30N 59°19' E 018°06'0 0.0
2015-May-21 10:32N 59°19' E 018°06'0 0.0
2015-May-21 09:31N 59°19' E 018°06'0 0.0
2015-May-21 08:31N 59°19' E 018°06'0 0.0
2015-May-21 07:34N 59°19' E 018°06'5 4.2
2015-May-21 06:15N 59°22' E 018°15'9111.3
2015-May-20 22:10N 59°33' E 021°13'1016.3
2015-May-20 21:33N 59°31' E 021°33'1716.3
2015-May-20 20:31N 59°29' E 022°06'3416.1
2015-May-20 18:23N 59°36' E 023°12'2016.2
2015-May-20 17:09N 59°41' E 023°50'1216.0
2015-May-20 16:25N 59°45' E 024°13'70 4.6
2015-May-20 01:08N 60°00' E 026°29'1015.6
2015-May-20 00:31N 60°00' E 026°48'8015.0
2015-May-19 19:10N 60°02' E 029°28'912.5
2015-May-19 18:25N 59°59' E 029°46'1011.0
2015-May-19 17:33N 59°56' E 030°05'3 3.3
2015-May-19 16:32N 59°57' E 030°11'0 0.0
2015-May-19 15:33N 59°57' E 030°11'0 0.0
2015-May-19 14:34N 59°57' E 030°11'0 0.0
2015-May-19 13:33N 59°57' E 030°11'0 0.0
2015-May-19 12:31N 59°57' E 030°11'0 0.0
2015-May-19 11:33N 59°57' E 030°11'0 0.0
2015-May-19 10:33N 59°57' E 030°11'0 0.0
2015-May-19 09:29N 59°57' E 030°11'0 0.0
2015-May-19 08:33N 59°57' E 030°11'0 0.0
2015-May-19 07:33N 59°57' E 030°11'0 0.0
2015-May-19 06:31N 59°57' E 030°11'0 0.0
2015-May-19 05:32N 59°57' E 030°11'0 0.0
2015-May-19 04:31N 59°57' E 030°11'2 1.8
2015-May-19 03:33N 59°57' E 030°08'1010.3
2015-May-19 02:33N 59°58' E 029°47'1110.8
2015-May-19 01:32N 60°01' E 029°27'7114.1
2015-May-18 20:30N 59°59' E 027°05'1515.8
2015-May-18 19:33N 59°59' E 026°35'5917.6
2015-May-18 16:13N 59°40' E 024°45'1014.5
2015-May-18 15:33N 59°30' E 024°46'3 2.9
2015-May-18 14:31N 59°27' E 024°46'0 0.0
2015-May-18 13:32N 59°27' E 024°46'0 0.0
2015-May-18 12:22N 59°27' E 024°46'0 0.0
2015-May-18 11:31N 59°27' E 024°46'0 0.0
2015-May-18 10:30N 59°27' E 024°46'0 0.0
2015-May-18 09:33N 59°27' E 024°46'0 0.0
2015-May-18 08:33N 59°27' E 024°46'0 0.0
2015-May-18 07:29N 59°27' E 024°46'0 0.0
2015-May-18 06:32N 59°27' E 024°46'0 0.0
2015-May-18 05:31N 59°27' E 024°46'0 0.1
2015-May-18 04:33N 59°27' E 024°46'9 8.8
2015-May-18 03:32N 59°30' E 024°29'1615.2
2015-May-18 02:31N 59°30' E 023°58'1010.6
2015-May-18 01:33N 59°30' E 023°38'9 9.0
2015-May-18 00:32N 59°30' E 023°20'10 9.7
2015-May-17 23:33N 59°28' E 023°02'33115.8
2015-May-17 02:31N 55°41' E 015°33'1716.1
2015-May-17 01:30N 55°33' E 015°07'1616.5
2015-May-17 00:33N 55°25' E 014°43'1716.0
2015-May-16 23:30N 55°13' E 014°24'1515.8
2015-May-16 22:33N 55°01' E 014°07'6716.0
2015-May-16 18:22N 54°36' E 012°20'1315.8
2015-May-16 17:34N 54°24' E 012°09'1313.2
2015-May-16 16:33N 54°11' E 012°05'1 0.5
2015-May-16 15:32N 54°11' E 012°06'0 0.0
2015-May-16 14:29N 54°11' E 012°06'0 0.0
2015-May-16 12:13N 54°11' E 012°06'0 0.0
2015-May-16 11:28N 54°11' E 012°06'0 0.0
2015-May-16 10:25N 54°11' E 012°06'0 0.0
2015-May-16 09:22N 54°11' E 012°06'0 0.0
2015-May-16 08:31N 54°11' E 012°06'0 0.0
2015-May-16 07:31N 54°11' E 012°06'0 0.0
2015-May-16 06:07N 54°11' E 012°06'0 0.0
2015-May-16 05:13N 54°11' E 012°06'0 0.0
2015-May-16 04:25N 54°11' E 012°06'10 7.9
2015-May-16 03:08N 54°20' E 011°59'611.3
2015-May-16 02:33N 54°26' E 012°04'6114.8
2015-May-15 22:26N 54°57' E 013°34'1415.8
2015-May-15 21:34N 55°02' E 013°57'1615.7
2015-May-15 20:33N 55°13' E 014°16'1110.8
2015-May-15 19:33N 55°22' E 014°28'1413.9
2015-May-15 18:33N 55°29' E 014°48'1615.9
2015-May-15 17:33N 55°37' E 015°12'1615.6
2015-May-15 16:33N 55°45' E 015°36'1515.5
2015-May-15 15:34N 55°53' E 016°00'9215.4
2015-May-15 09:33N 57°12' E 017°29'134 8.7
2015-May-14 18:13N 59°23' E 018°18'7 9.7
2015-May-14 17:33N 59°19' E 018°07'1 0.5
2015-May-14 16:28N 59°19' E 018°06'0 0.0
2015-May-14 15:31N 59°19' E 018°06'0 0.0
2015-May-14 14:30N 59°19' E 018°06'0 0.0
2015-May-14 13:33N 59°19' E 018°06'0 0.0
2015-May-14 12:33N 59°19' E 018°06'0 0.0
2015-May-14 11:33N 59°19' E 018°06'0 0.0
2015-May-14 10:27N 59°19' E 018°06'0 0.0
2015-May-14 09:27N 59°19' E 018°06'0 0.0
2015-May-14 07:33N 59°19' E 018°06'9 9.0
2015-May-14 06:33N 59°22' E 018°22'9211.3
2015-May-13 22:20N 59°32' E 021°23'1215.5
2015-May-13 21:33N 59°30' E 021°47'5016.5
2015-May-13 18:32N 59°38' E 023°24'1917.7
2015-May-13 17:27N 59°43' E 024°00'1516.9
2015-May-13 16:33N 59°49' E 024°28'2114.3
2015-May-13 15:07N 60°05' E 024°53'4 0.4
2015-May-13 05:21N 60°09' E 024°55'5311.0
2015-May-13 00:34N 60°01' E 026°40'9214.9
2015-May-12 18:23N 59°59' E 029°44'911.3
2015-May-12 17:33N 59°55' E 030°01'5 4.8
2015-May-12 16:31N 59°57' E 030°11'0 0.0
2015-May-12 15:32N 59°57' E 030°11'0 0.0
2015-May-12 14:33N 59°57' E 030°11'0 0.0
2015-May-12 13:33N 59°57' E 030°11'0 0.0
2015-May-12 12:33N 59°57' E 030°11'0 0.0
2015-May-12 11:33N 59°57' E 030°11'0 0.0
2015-May-12 10:32N 59°57' E 030°11'0 0.0
2015-May-12 09:33N 59°57' E 030°11'0 0.0
2015-May-12 08:33N 59°57' E 030°11'0 0.0
2015-May-12 07:33N 59°57' E 030°11'0 0.0
2015-May-12 06:31N 59°57' E 030°11'0 0.0
2015-May-12 05:32N 59°57' E 030°11'0 0.0
2015-May-12 04:33N 59°57' E 030°11'6 5.8
2015-May-12 03:33N 59°55' E 029°60'1111.1
2015-May-12 02:33N 59°60' E 029°39'6613.3
2015-May-11 21:33N 60°05' E 027°27'1615.9
2015-May-11 20:33N 59°58' E 026°58'1615.6
2015-May-11 19:33N 59°58' E 026°27'1616.2
2015-May-11 18:33N 59°53' E 025°57'  

Dump ship's entire track history